Terminal Aerodrome Forecast
Issued by NWS Houston/Galveston, TX

Home | Current Version | Previous Version | Text Only | Print | Product List | Glossary On
Versions: 1 2 3 4 5 6 7 8 9 10 11 12 13 14
000
FTUS44 KHGX 210524
TAFGLS
TAF
KGLS 210524Z 2106/2206 17007KT P6SM SKC
      TEMPO 2109/2113 6SM BR FEW015 FEW070
     FM211400 15010KT P6SM SCT015 SCT060
     FM211800 16010KT P6SM SCT150
     FM220100 18007KT P6SM SCT150=

USA.gov is the U.S. government's official web portal to all federal, state and local government web resources and services.